sensor_id;sensor_type;location;lat;lon;timestamp;temperature;humidity
51839;DHT22;37886;53.174;6.368;2022-10-17T00:00:43;11.30;99.90
51839;DHT22;37886;53.174;6.368;2022-10-17T00:03:09;11.30;99.90
51839;DHT22;37886;53.174;6.368;2022-10-17T00:05:44;11.40;99.90
51839;DHT22;37886;53.174;6.368;2022-10-17T00:08:12;11.30;99.90
51839;DHT22;37886;53.174;6.368;2022-10-17T00:10:38;11.40;99.90
51839;DHT22;37886;53.174;6.368;2022-10-17T00:13:04;11.30;99.90
51839;DHT22;37886;53.174;6.368;2022-10-17T00:15:31;11.30;99.90
51839;DHT22;37886;53.174;6.368;2022-10-17T00:17:58;11.30;99.90
51839;DHT22;37886;53.174;6.368;2022-10-17T00:20:23;11.20;99.90
51839;DHT22;37886;53.174;6.368;2022-10-17T00:22:52;11.20;99.90
51839;DHT22;37886;53.174;6.368;2022-10-17T00:25:18;11.30;99.90
51839;DHT22;37886;53.174;6.368;2022-10-17T00:27:44;11.30;99.90
51839;DHT22;37886;53.174;6.368;2022-10-17T00:30:13;11.40;99.90
51839;DHT22;37886;53.174;6.368;2022-10-17T00:32:39;11.40;99.90
51839;DHT22;37886;53.174;6.368;2022-10-17T00:35:06;11.40;99.90
51839;DHT22;37886;53.174;6.368;2022-10-17T00:37:32;11.50;99.90
51839;DHT22;37886;53.174;6.368;2022-10-17T00:39:58;11.50;99.90
51839;DHT22;37886;53.174;6.368;2022-10-17T00:42:24;11.50;99.90
51839;DHT22;37886;53.174;6.368;2022-10-17T00:44:58;11.50;99.90
51839;DHT22;37886;53.174;6.368;2022-10-17T00:47:24;11.50;99.90
51839;DHT22;37886;53.174;6.368;2022-10-17T00:49:50;11.50;99.90
51839;DHT22;37886;53.174;6.368;2022-10-17T00:52:24;11.70;99.90
51839;DHT22;37886;53.174;6.368;2022-10-17T00:54:58;11.70;99.90
51839;DHT22;37886;53.174;6.368;2022-10-17T00:57:26;11.80;99.90
51839;DHT22;37886;53.174;6.368;2022-10-17T00:59:55;11.80;99.90
51839;DHT22;37886;53.174;6.368;2022-10-17T01:02:22;11.80;99.90
51839;DHT22;37886;53.174;6.368;2022-10-17T01:04:50;11.80;99.90
51839;DHT22;37886;53.174;6.368;2022-10-17T01:07:17;11.80;99.90
51839;DHT22;37886;53.174;6.368;2022-10-17T01:09:44;11.90;99.90
51839;DHT22;37886;53.174;6.368;2022-10-17T01:12:25;11.90;99.90
51839;DHT22;37886;53.174;6.368;2022-10-17T01:31:54;12.20;99.90
51839;DHT22;37886;53.174;6.368;2022-10-17T01:37:39;12.40;99.90
51839;DHT22;37886;53.174;6.368;2022-10-17T01:40:13;12.40;99.90
51839;DHT22;37886;53.174;6.368;2022-10-17T01:42:52;12.50;99.90
51839;DHT22;37886;53.174;6.368;2022-10-17T01:45:48;12.50;99.90
51839;DHT22;37886;53.174;6.368;2022-10-17T01:48:17;12.50;99.90
51839;DHT22;37886;53.174;6.368;2022-10-17T01:50:51;12.50;99.90
51839;DHT22;37886;53.174;6.368;2022-10-17T01:53:23;12.50;99.90
51839;DHT22;37886;53.174;6.368;2022-10-17T01:55:53;12.50;99.90
51839;DHT22;37886;53.174;6.368;2022-10-17T01:58:50;12.40;99.90
51839;DHT22;37886;53.174;6.368;2022-10-17T02:01:18;12.40;99.90
51839;DHT22;37886;53.174;6.368;2022-10-17T02:03:46;12.30;99.90
51839;DHT22;37886;53.174;6.368;2022-10-17T02:06:13;12.30;99.90
51839;DHT22;37886;53.174;6.368;2022-10-17T02:08:47;12.20;99.90
51839;DHT22;37886;53.174;6.368;2022-10-17T02:11:16;12.20;99.90
51839;DHT22;37886;53.174;6.368;2022-10-17T02:22:06;12.20;99.90
51839;DHT22;37886;53.174;6.368;2022-10-17T02:30:17;12.20;99.90
51839;DHT22;37886;53.174;6.368;2022-10-17T02:32:52;12.10;99.90
51839;DHT22;37886;53.174;6.368;2022-10-17T02:35:20;12.10;99.90
51839;DHT22;37886;53.174;6.368;2022-10-17T02:37:48;12.10;99.90
51839;DHT22;37886;53.174;6.368;2022-10-17T02:40:17;12.10;99.90
51839;DHT22;37886;53.174;6.368;2022-10-17T02:42:46;12.10;99.90
51839;DHT22;37886;53.174;6.368;2022-10-17T02:45:13;12.10;99.90
51839;DHT22;37886;53.174;6.368;2022-10-17T02:47:56;12.10;99.90
51839;DHT22;37886;53.174;6.368;2022-10-17T02:51:03;12.10;99.90
51839;DHT22;37886;53.174;6.368;2022-10-17T02:56:19;12.10;99.90
51839;DHT22;37886;53.174;6.368;2022-10-17T02:58:49;12.10;99.90
51839;DHT22;37886;53.174;6.368;2022-10-17T03:01:16;12.10;99.90
51839;DHT22;37886;53.174;6.368;2022-10-17T03:03:42;12.10;99.90
51839;DHT22;37886;53.174;6.368;2022-10-17T03:06:08;12.10;99.90
51839;DHT22;37886;53.174;6.368;2022-10-17T03:08:34;12.10;99.90
51839;DHT22;37886;53.174;6.368;2022-10-17T03:10:59;12.10;99.90
51839;DHT22;37886;53.174;6.368;2022-10-17T03:13:25;12.20;99.90
51839;DHT22;37886;53.174;6.368;2022-10-17T03:15:50;12.20;99.90
51839;DHT22;37886;53.174;6.368;2022-10-17T03:18:16;12.20;99.90
51839;DHT22;37886;53.174;6.368;2022-10-17T03:20:42;12.20;99.90
51839;DHT22;37886;53.174;6.368;2022-10-17T03:23:08;12.20;99.90
51839;DHT22;37886;53.174;6.368;2022-10-17T03:25:33;12.20;99.90
51839;DHT22;37886;53.174;6.368;2022-10-17T03:27:59;12.30;99.90
51839;DHT22;37886;53.174;6.368;2022-10-17T03:30:26;12.30;99.90
51839;DHT22;37886;53.174;6.368;2022-10-17T03:32:52;12.30;99.90
51839;DHT22;37886;53.174;6.368;2022-10-17T03:35:18;12.30;99.90
51839;DHT22;37886;53.174;6.368;2022-10-17T03:37:43;12.30;99.90
51839;DHT22;37886;53.174;6.368;2022-10-17T03:40:09;12.30;99.90
51839;DHT22;37886;53.174;6.368;2022-10-17T03:42:35;12.30;99.90
51839;DHT22;37886;53.174;6.368;2022-10-17T03:45:00;12.30;99.90
51839;DHT22;37886;53.174;6.368;2022-10-17T03:47:27;12.30;99.90
51839;DHT22;37886;53.174;6.368;2022-10-17T03:49:53;12.30;99.90
51839;DHT22;37886;53.174;6.368;2022-10-17T03:52:19;12.30;99.90
51839;DHT22;37886;53.174;6.368;2022-10-17T03:54:44;12.40;99.90
51839;DHT22;37886;53.174;6.368;2022-10-17T03:57:10;12.30;99.90
51839;DHT22;37886;53.174;6.368;2022-10-17T03:59:36;12.40;99.90
51839;DHT22;37886;53.174;6.368;2022-10-17T04:02:02;12.40;99.90
51839;DHT22;37886;53.174;6.368;2022-10-17T04:04:27;12.50;99.90
51839;DHT22;37886;53.174;6.368;2022-10-17T04:06:53;12.50;99.90
51839;DHT22;37886;53.174;6.368;2022-10-17T04:09:19;12.40;99.90
51839;DHT22;37886;53.174;6.368;2022-10-17T04:11:44;12.60;99.90
51839;DHT22;37886;53.174;6.368;2022-10-17T04:14:10;12.50;99.90
51839;DHT22;37886;53.174;6.368;2022-10-17T04:16:37;12.60;99.90
51839;DHT22;37886;53.174;6.368;2022-10-17T04:19:03;12.60;99.90
51839;DHT22;37886;53.174;6.368;2022-10-17T04:21:28;12.70;99.90
51839;DHT22;37886;53.174;6.368;2022-10-17T04:23:59;12.70;99.90
51839;DHT22;37886;53.174;6.368;2022-10-17T04:26:25;12.80;99.90
51839;DHT22;37886;53.174;6.368;2022-10-17T04:28:52;12.80;99.90
51839;DHT22;37886;53.174;6.368;2022-10-17T04:31:17;12.90;99.90
51839;DHT22;37886;53.174;6.368;2022-10-17T04:33:46;12.80;99.90
51839;DHT22;37886;53.174;6.368;2022-10-17T04:36:14;12.90;99.90
51839;DHT22;37886;53.174;6.368;2022-10-17T04:38:40;13.00;99.90
51839;DHT22;37886;53.174;6.368;2022-10-17T04:41:10;13.00;99.90
51839;DHT22;37886;53.174;6.368;2022-10-17T04:43:38;13.00;99.90
51839;DHT22;37886;53.174;6.368;2022-10-17T04:46:07;13.10;99.90
51839;DHT22;37886;53.174;6.368;2022-10-17T04:48:33;13.20;99.90
51839;DHT22;37886;53.174;6.368;2022-10-17T04:51:04;13.20;99.90
51839;DHT22;37886;53.174;6.368;2022-10-17T04:53:31;13.30;99.90
51839;DHT22;37886;53.174;6.368;2022-10-17T04:55:57;13.30;99.90
51839;DHT22;37886;53.174;6.368;2022-10-17T04:58:23;13.30;99.90
51839;DHT22;37886;53.174;6.368;2022-10-17T05:00:52;13.30;99.90
51839;DHT22;37886;53.174;6.368;2022-10-17T05:03:17;13.30;99.90
51839;DHT22;37886;53.174;6.368;2022-10-17T05:05:43;13.40;99.90
51839;DHT22;37886;53.174;6.368;2022-10-17T05:08:10;13.40;99.90
51839;DHT22;37886;53.174;6.368;2022-10-17T05:10:43;13.50;99.90
51839;DHT22;37886;53.174;6.368;2022-10-17T05:13:10;13.50;99.90
51839;DHT22;37886;53.174;6.368;2022-10-17T05:15:37;13.60;99.90
51839;DHT22;37886;53.174;6.368;2022-10-17T05:18:04;13.60;99.90
51839;DHT22;37886;53.174;6.368;2022-10-17T05:20:31;13.60;99.90
51839;DHT22;37886;53.174;6.368;2022-10-17T05:23:00;13.70;99.90
51839;DHT22;37886;53.174;6.368;2022-10-17T05:25:26;13.70;99.90
51839;DHT22;37886;53.174;6.368;2022-10-17T05:27:52;13.70;99.90
51839;DHT22;37886;53.174;6.368;2022-10-17T05:30:19;13.70;99.90
51839;DHT22;37886;53.174;6.368;2022-10-17T05:32:44;13.80;99.90
51839;DHT22;37886;53.174;6.368;2022-10-17T05:35:10;13.80;99.90
51839;DHT22;37886;53.174;6.368;2022-10-17T05:37:36;13.80;99.90
51839;DHT22;37886;53.174;6.368;2022-10-17T05:40:02;13.70;99.90
51839;DHT22;37886;53.174;6.368;2022-10-17T05:42:27;13.70;99.90
51839;DHT22;37886;53.174;6.368;2022-10-17T05:44:56;13.80;99.90
51839;DHT22;37886;53.174;6.368;2022-10-17T05:47:21;13.80;99.90
51839;DHT22;37886;53.174;6.368;2022-10-17T05:49:47;13.80;99.90
51839;DHT22;37886;53.174;6.368;2022-10-17T05:52:12;13.80;99.90
51839;DHT22;37886;53.174;6.368;2022-10-17T05:54:38;13.80;99.90
51839;DHT22;37886;53.174;6.368;2022-10-17T05:57:04;13.80;99.90
51839;DHT22;37886;53.174;6.368;2022-10-17T05:59:29;13.90;99.90
51839;DHT22;37886;53.174;6.368;2022-10-17T06:01:55;13.90;99.90
51839;DHT22;37886;53.174;6.368;2022-10-17T06:04:21;13.90;99.90
51839;DHT22;37886;53.174;6.368;2022-10-17T06:06:46;13.80;99.90
51839;DHT22;37886;53.174;6.368;2022-10-17T06:09:12;13.80;99.90
51839;DHT22;37886;53.174;6.368;2022-10-17T06:11:38;13.80;99.90
51839;DHT22;37886;53.174;6.368;2022-10-17T06:14:04;13.80;99.90
51839;DHT22;37886;53.174;6.368;2022-10-17T06:16:29;13.80;99.90
51839;DHT22;37886;53.174;6.368;2022-10-17T06:18:55;13.90;99.90
51839;DHT22;37886;53.174;6.368;2022-10-17T06:21:27;13.90;99.90
51839;DHT22;37886;53.174;6.368;2022-10-17T06:23:53;13.90;99.90
51839;DHT22;37886;53.174;6.368;2022-10-17T06:26:19;14.00;99.90
51839;DHT22;37886;53.174;6.368;2022-10-17T06:28:45;13.90;99.90
51839;DHT22;37886;53.174;6.368;2022-10-17T06:31:13;14.00;99.90
51839;DHT22;37886;53.174;6.368;2022-10-17T06:33:39;14.10;99.90
51839;DHT22;37886;53.174;6.368;2022-10-17T06:36:07;14.00;99.90
51839;DHT22;37886;53.174;6.368;2022-10-17T06:38:33;14.00;99.90
51839;DHT22;37886;53.174;6.368;2022-10-17T06:41:11;14.00;99.90
51839;DHT22;37886;53.174;6.368;2022-10-17T06:43:42;14.00;99.90
51839;DHT22;37886;53.174;6.368;2022-10-17T06:46:11;14.00;99.90
51839;DHT22;37886;53.174;6.368;2022-10-17T06:48:36;14.00;99.90
51839;DHT22;37886;53.174;6.368;2022-10-17T06:51:03;14.10;99.90
51839;DHT22;37886;53.174;6.368;2022-10-17T06:53:31;14.10;99.90
51839;DHT22;37886;53.174;6.368;2022-10-17T06:55:57;14.20;99.90
51839;DHT22;37886;53.174;6.368;2022-10-17T06:58:29;14.20;99.90
51839;DHT22;37886;53.174;6.368;2022-10-17T07:01:06;14.20;99.90
51839;DHT22;37886;53.174;6.368;2022-10-17T07:03:32;14.30;99.90
51839;DHT22;37886;53.174;6.368;2022-10-17T07:05:58;14.20;99.90
51839;DHT22;37886;53.174;6.368;2022-10-17T07:08:25;14.30;99.90
51839;DHT22;37886;53.174;6.368;2022-10-17T07:10:51;14.40;99.90
51839;DHT22;37886;53.174;6.368;2022-10-17T07:13:17;14.40;99.90
51839;DHT22;37886;53.174;6.368;2022-10-17T07:15:43;14.40;99.90
51839;DHT22;37886;53.174;6.368;2022-10-17T07:18:09;14.50;99.90
51839;DHT22;37886;53.174;6.368;2022-10-17T07:20:35;14.60;99.90
51839;DHT22;37886;53.174;6.368;2022-10-17T07:23:01;14.70;99.90
51839;DHT22;37886;53.174;6.368;2022-10-17T07:25:27;14.80;99.90
51839;DHT22;37886;53.174;6.368;2022-10-17T07:27:53;14.90;99.90
51839;DHT22;37886;53.174;6.368;2022-10-17T07:30:19;15.00;99.90
51839;DHT22;37886;53.174;6.368;2022-10-17T07:32:46;15.20;99.90
51839;DHT22;37886;53.174;6.368;2022-10-17T07:35:14;15.30;99.90
51839;DHT22;37886;53.174;6.368;2022-10-17T07:37:40;15.30;99.90
51839;DHT22;37886;53.174;6.368;2022-10-17T07:40:07;15.30;99.90
51839;DHT22;37886;53.174;6.368;2022-10-17T07:42:35;15.40;99.90
51839;DHT22;37886;53.174;6.368;2022-10-17T07:45:02;15.40;99.90
51839;DHT22;37886;53.174;6.368;2022-10-17T07:47:27;15.40;99.90
51839;DHT22;37886;53.174;6.368;2022-10-17T07:49:55;15.50;99.90
51839;DHT22;37886;53.174;6.368;2022-10-17T07:52:21;15.50;99.90
51839;DHT22;37886;53.174;6.368;2022-10-17T07:54:47;15.60;99.90
51839;DHT22;37886;53.174;6.368;2022-10-17T07:57:13;15.60;99.90
51839;DHT22;37886;53.174;6.368;2022-10-17T07:59:39;15.80;99.90
51839;DHT22;37886;53.174;6.368;2022-10-17T08:02:05;16.00;99.90
51839;DHT22;37886;53.174;6.368;2022-10-17T08:04:33;16.10;99.90
51839;DHT22;37886;53.174;6.368;2022-10-17T08:06:59;16.30;99.90
51839;DHT22;37886;53.174;6.368;2022-10-17T08:09:25;16.50;99.90
51839;DHT22;37886;53.174;6.368;2022-10-17T08:11:50;16.50;99.90
51839;DHT22;37886;53.174;6.368;2022-10-17T08:14:16;16.60;99.90
51839;DHT22;37886;53.174;6.368;2022-10-17T08:16:42;16.60;99.90
51839;DHT22;37886;53.174;6.368;2022-10-17T08:19:08;16.70;99.90
51839;DHT22;37886;53.174;6.368;2022-10-17T08:21:36;16.70;99.90
51839;DHT22;37886;53.174;6.368;2022-10-17T08:24:02;16.70;99.90
51839;DHT22;37886;53.174;6.368;2022-10-17T08:26:28;16.80;99.90
51839;DHT22;37886;53.174;6.368;2022-10-17T08:28:54;16.80;99.90
51839;DHT22;37886;53.174;6.368;2022-10-17T08:31:20;16.80;99.90
51839;DHT22;37886;53.174;6.368;2022-10-17T08:33:47;16.90;99.90
51839;DHT22;37886;53.174;6.368;2022-10-17T08:36:16;16.90;99.90
51839;DHT22;37886;53.174;6.368;2022-10-17T08:38:42;17.00;99.90
51839;DHT22;37886;53.174;6.368;2022-10-17T08:47:10;17.30;99.90
51839;DHT22;37886;53.174;6.368;2022-10-17T08:49:47;17.30;99.90
51839;DHT22;37886;53.174;6.368;2022-10-17T08:52:39;17.30;99.90
51839;DHT22;37886;53.174;6.368;2022-10-17T08:55:31;17.30;99.90
51839;DHT22;37886;53.174;6.368;2022-10-17T08:57:58;17.40;99.90
51839;DHT22;37886;53.174;6.368;2022-10-17T09:00:24;17.50;99.90
51839;DHT22;37886;53.174;6.368;2022-10-17T09:05:51;17.40;99.90
51839;DHT22;37886;53.174;6.368;2022-10-17T09:08:29;17.40;99.90
51839;DHT22;37886;53.174;6.368;2022-10-17T09:11:08;17.30;99.90
51839;DHT22;37886;53.174;6.368;2022-10-17T09:18:59;17.30;99.90
51839;DHT22;37886;53.174;6.368;2022-10-17T09:21:38;17.30;99.90
51839;DHT22;37886;53.174;6.368;2022-10-17T09:24:12;17.30;99.90
51839;DHT22;37886;53.174;6.368;2022-10-17T09:26:40;17.30;99.90
51839;DHT22;37886;53.174;6.368;2022-10-17T09:29:24;17.20;99.90
51839;DHT22;37886;53.174;6.368;2022-10-17T09:32:23;17.20;99.90
51839;DHT22;37886;53.174;6.368;2022-10-17T09:34:51;17.10;99.90
51839;DHT22;37886;53.174;6.368;2022-10-17T09:37:18;17.10;99.90
51839;DHT22;37886;53.174;6.368;2022-10-17T09:39:44;17.00;99.90
51839;DHT22;37886;53.174;6.368;2022-10-17T09:42:14;17.00;99.90
51839;DHT22;37886;53.174;6.368;2022-10-17T09:44:49;17.00;99.90
51839;DHT22;37886;53.174;6.368;2022-10-17T09:47:28;17.00;99.90
51839;DHT22;37886;53.174;6.368;2022-10-17T09:49:55;17.10;99.90
51839;DHT22;37886;53.174;6.368;2022-10-17T09:52:33;17.00;99.90
51839;DHT22;37886;53.174;6.368;2022-10-17T09:55:10;16.90;99.90
51839;DHT22;37886;53.174;6.368;2022-10-17T09:57:57;16.80;99.90
51839;DHT22;37886;53.174;6.368;2022-10-17T10:00:29;16.80;99.90
51839;DHT22;37886;53.174;6.368;2022-10-17T10:05:40;16.70;99.90
51839;DHT22;37886;53.174;6.368;2022-10-17T10:08:15;16.60;99.90
51839;DHT22;37886;53.174;6.368;2022-10-17T10:10:42;16.50;99.90
51839;DHT22;37886;53.174;6.368;2022-10-17T10:15:39;16.60;99.90
51839;DHT22;37886;53.174;6.368;2022-10-17T10:21:13;16.50;99.90
51839;DHT22;37886;53.174;6.368;2022-10-17T10:23:41;16.50;99.90
51839;DHT22;37886;53.174;6.368;2022-10-17T10:29:01;16.50;99.90
51839;DHT22;37886;53.174;6.368;2022-10-17T10:31:33;16.50;99.90
51839;DHT22;37886;53.174;6.368;2022-10-17T10:34:10;16.50;99.90
51839;DHT22;37886;53.174;6.368;2022-10-17T10:36:51;16.50;99.90
51839;DHT22;37886;53.174;6.368;2022-10-17T10:41:52;16.60;99.90
51839;DHT22;37886;53.174;6.368;2022-10-17T10:44:22;16.60;99.90
51839;DHT22;37886;53.174;6.368;2022-10-17T10:47:05;16.60;99.90
51839;DHT22;37886;53.174;6.368;2022-10-17T10:49:32;16.70;99.90
51839;DHT22;37886;53.174;6.368;2022-10-17T10:51:59;16.60;99.90
51839;DHT22;37886;53.174;6.368;2022-10-17T10:54:37;16.60;99.90
51839;DHT22;37886;53.174;6.368;2022-10-17T10:57:06;16.60;99.90
51839;DHT22;37886;53.174;6.368;2022-10-17T11:02:57;16.70;99.90
51839;DHT22;37886;53.174;6.368;2022-10-17T11:05:39;16.70;99.90
51839;DHT22;37886;53.174;6.368;2022-10-17T11:08:25;16.80;99.90
51839;DHT22;37886;53.174;6.368;2022-10-17T11:11:27;16.80;99.90
51839;DHT22;37886;53.174;6.368;2022-10-17T11:14:20;16.80;99.90
51839;DHT22;37886;53.174;6.368;2022-10-17T11:17:07;16.80;99.90
51839;DHT22;37886;53.174;6.368;2022-10-17T11:19:43;16.80;99.90
51839;DHT22;37886;53.174;6.368;2022-10-17T11:22:30;16.70;99.90
51839;DHT22;37886;53.174;6.368;2022-10-17T11:25:04;16.70;99.90
51839;DHT22;37886;53.174;6.368;2022-10-17T11:27:31;16.70;99.90
51839;DHT22;37886;53.174;6.368;2022-10-17T11:29:58;16.70;99.90
51839;DHT22;37886;53.174;6.368;2022-10-17T11:37:37;16.80;99.90
51839;DHT22;37886;53.174;6.368;2022-10-17T11:40:28;16.70;99.90
51839;DHT22;37886;53.174;6.368;2022-10-17T11:44:02;16.70;99.90
51839;DHT22;37886;53.174;6.368;2022-10-17T11:45:59;16.70;99.90
51839;DHT22;37886;53.174;6.368;2022-10-17T11:51:17;16.70;99.90
51839;DHT22;37886;53.174;6.368;2022-10-17T11:54:03;16.70;99.90
51839;DHT22;37886;53.174;6.368;2022-10-17T11:56:36;16.70;99.90
51839;DHT22;37886;53.174;6.368;2022-10-17T12:01:53;16.70;99.90
51839;DHT22;37886;53.174;6.368;2022-10-17T12:16:42;16.90;99.90
51839;DHT22;37886;53.174;6.368;2022-10-17T12:18:43;17.10;99.90
51839;DHT22;37886;53.174;6.368;2022-10-17T12:21:09;17.20;99.90
51839;DHT22;37886;53.174;6.368;2022-10-17T12:23:35;17.30;99.90
51839;DHT22;37886;53.174;6.368;2022-10-17T12:26:08;17.30;99.90
51839;DHT22;37886;53.174;6.368;2022-10-17T12:28:43;17.20;99.90
51839;DHT22;37886;53.174;6.368;2022-10-17T12:33:59;17.10;99.90
51839;DHT22;37886;53.174;6.368;2022-10-17T12:46:50;16.80;99.90
51839;DHT22;37886;53.174;6.368;2022-10-17T12:49:39;16.80;99.90
51839;DHT22;37886;53.174;6.368;2022-10-17T12:52:50;16.80;99.90
51839;DHT22;37886;53.174;6.368;2022-10-17T12:55:22;16.80;99.90
51839;DHT22;37886;53.174;6.368;2022-10-17T12:57:59;16.70;99.90
51839;DHT22;37886;53.174;6.368;2022-10-17T13:00:50;16.70;99.90
51839;DHT22;37886;53.174;6.368;2022-10-17T13:03:21;16.70;99.90
51839;DHT22;37886;53.174;6.368;2022-10-17T13:05:48;16.60;99.90
51839;DHT22;37886;53.174;6.368;2022-10-17T13:08:20;16.50;99.90
51839;DHT22;37886;53.174;6.368;2022-10-17T13:10:49;16.50;99.90
51839;DHT22;37886;53.174;6.368;2022-10-17T13:16:36;16.40;99.90
51839;DHT22;37886;53.174;6.368;2022-10-17T13:19:14;16.30;99.90
51839;DHT22;37886;53.174;6.368;2022-10-17T13:22:31;16.20;99.90
51839;DHT22;37886;53.174;6.368;2022-10-17T13:25:14;16.10;99.90
51839;DHT22;37886;53.174;6.368;2022-10-17T13:27:40;16.10;99.90
51839;DHT22;37886;53.174;6.368;2022-10-17T13:30:26;16.00;99.90
51839;DHT22;37886;53.174;6.368;2022-10-17T13:32:52;16.00;99.90
51839;DHT22;37886;53.174;6.368;2022-10-17T13:35:33;15.90;99.90
51839;DHT22;37886;53.174;6.368;2022-10-17T13:38:01;15.90;99.90
51839;DHT22;37886;53.174;6.368;2022-10-17T13:40:30;15.90;99.90
51839;DHT22;37886;53.174;6.368;2022-10-17T13:42:57;15.90;99.90
51839;DHT22;37886;53.174;6.368;2022-10-17T13:45:35;15.80;99.90
51839;DHT22;37886;53.174;6.368;2022-10-17T13:48:07;15.70;99.90
51839;DHT22;37886;53.174;6.368;2022-10-17T13:50:42;15.70;99.90
51839;DHT22;37886;53.174;6.368;2022-10-17T13:53:24;15.70;99.90
51839;DHT22;37886;53.174;6.368;2022-10-17T13:58:38;15.70;99.90
51839;DHT22;37886;53.174;6.368;2022-10-17T14:01:05;15.60;99.90
51839;DHT22;37886;53.174;6.368;2022-10-17T14:03:34;15.70;99.90
51839;DHT22;37886;53.174;6.368;2022-10-17T14:08:32;15.80;99.90
51839;DHT22;37886;53.174;6.368;2022-10-17T14:10:59;15.80;99.90
51839;DHT22;37886;53.174;6.368;2022-10-17T14:13:27;15.90;99.90
51839;DHT22;37886;53.174;6.368;2022-10-17T14:15:55;15.90;99.90
51839;DHT22;37886;53.174;6.368;2022-10-17T14:18:33;15.90;99.90
51839;DHT22;37886;53.174;6.368;2022-10-17T14:21:00;15.90;99.90
51839;DHT22;37886;53.174;6.368;2022-10-17T14:23:39;15.90;99.90
51839;DHT22;37886;53.174;6.368;2022-10-17T14:26:11;15.90;99.90
51839;DHT22;37886;53.174;6.368;2022-10-17T14:28:39;15.80;99.90
51839;DHT22;37886;53.174;6.368;2022-10-17T14:31:11;15.80;99.90
51839;DHT22;37886;53.174;6.368;2022-10-17T14:33:43;15.80;99.90
51839;DHT22;37886;53.174;6.368;2022-10-17T14:36:09;15.80;99.90
51839;DHT22;37886;53.174;6.368;2022-10-17T14:38:35;15.90;99.90
51839;DHT22;37886;53.174;6.368;2022-10-17T14:41:11;15.80;99.90
51839;DHT22;37886;53.174;6.368;2022-10-17T14:43:38;15.80;99.90
51839;DHT22;37886;53.174;6.368;2022-10-17T14:46:04;15.80;99.90
51839;DHT22;37886;53.174;6.368;2022-10-17T14:48:30;15.80;99.90
51839;DHT22;37886;53.174;6.368;2022-10-17T14:51:16;15.70;99.90
51839;DHT22;37886;53.174;6.368;2022-10-17T14:54:04;15.80;99.90
51839;DHT22;37886;53.174;6.368;2022-10-17T14:56:42;15.90;99.90
51839;DHT22;37886;53.174;6.368;2022-10-17T14:59:07;15.70;99.90
51839;DHT22;37886;53.174;6.368;2022-10-17T15:01:35;15.80;99.90
51839;DHT22;37886;53.174;6.368;2022-10-17T15:04:01;15.70;99.90
51839;DHT22;37886;53.174;6.368;2022-10-17T15:06:30;15.80;99.90
51839;DHT22;37886;53.174;6.368;2022-10-17T15:08:56;15.80;99.90
51839;DHT22;37886;53.174;6.368;2022-10-17T15:11:23;15.80;99.90
51839;DHT22;37886;53.174;6.368;2022-10-17T15:13:49;15.80;99.90
51839;DHT22;37886;53.174;6.368;2022-10-17T15:16:18;15.90;99.90
51839;DHT22;37886;53.174;6.368;2022-10-17T15:18:44;15.90;99.90
51839;DHT22;37886;53.174;6.368;2022-10-17T15:21:14;15.90;99.90
51839;DHT22;37886;53.174;6.368;2022-10-17T15:23:40;15.90;99.90
51839;DHT22;37886;53.174;6.368;2022-10-17T15:26:19;15.90;99.90
51839;DHT22;37886;53.174;6.368;2022-10-17T15:28:45;15.80;99.90
51839;DHT22;37886;53.174;6.368;2022-10-17T15:31:13;15.90;99.90
51839;DHT22;37886;53.174;6.368;2022-10-17T15:33:40;15.80;99.90
51839;DHT22;37886;53.174;6.368;2022-10-17T15:36:37;15.70;99.90
51839;DHT22;37886;53.174;6.368;2022-10-17T15:39:03;15.60;99.90
51839;DHT22;37886;53.174;6.368;2022-10-17T15:41:30;15.50;99.90
51839;DHT22;37886;53.174;6.368;2022-10-17T15:43:56;15.40;99.90
51839;DHT22;37886;53.174;6.368;2022-10-17T15:46:24;15.30;99.90
51839;DHT22;37886;53.174;6.368;2022-10-17T15:48:51;15.30;99.90
51839;DHT22;37886;53.174;6.368;2022-10-17T15:51:18;15.30;99.90
51839;DHT22;37886;53.174;6.368;2022-10-17T15:53:44;15.20;99.90
51839;DHT22;37886;53.174;6.368;2022-10-17T15:56:25;15.20;99.90
51839;DHT22;37886;53.174;6.368;2022-10-17T15:58:52;15.20;99.90
51839;DHT22;37886;53.174;6.368;2022-10-17T16:01:23;15.20;99.90
51839;DHT22;37886;53.174;6.368;2022-10-17T16:03:52;15.20;99.90
51839;DHT22;37886;53.174;6.368;2022-10-17T16:06:19;15.10;99.90
51839;DHT22;37886;53.174;6.368;2022-10-17T16:08:46;15.10;99.90
51839;DHT22;37886;53.174;6.368;2022-10-17T16:13:52;15.00;99.90
51839;DHT22;37886;53.174;6.368;2022-10-17T16:16:19;15.00;99.90
51839;DHT22;37886;53.174;6.368;2022-10-17T16:18:46;14.90;99.90
51839;DHT22;37886;53.174;6.368;2022-10-17T16:21:13;14.90;99.90
51839;DHT22;37886;53.174;6.368;2022-10-17T16:23:40;14.80;99.90
51839;DHT22;37886;53.174;6.368;2022-10-17T16:26:09;14.80;99.90
51839;DHT22;37886;53.174;6.368;2022-10-17T16:28:38;14.80;99.90
51839;DHT22;37886;53.174;6.368;2022-10-17T16:31:07;14.70;99.90
51839;DHT22;37886;53.174;6.368;2022-10-17T16:33:38;14.70;99.90
51839;DHT22;37886;53.174;6.368;2022-10-17T16:36:03;14.70;99.90
51839;DHT22;37886;53.174;6.368;2022-10-17T16:38:29;14.70;99.90
51839;DHT22;37886;53.174;6.368;2022-10-17T16:40:55;14.60;99.90
51839;DHT22;37886;53.174;6.368;2022-10-17T16:43:20;14.60;99.90
51839;DHT22;37886;53.174;6.368;2022-10-17T16:45:46;14.60;99.90
51839;DHT22;37886;53.174;6.368;2022-10-17T16:48:12;14.60;99.90
51839;DHT22;37886;53.174;6.368;2022-10-17T16:50:38;14.50;99.90
51839;DHT22;37886;53.174;6.368;2022-10-17T16:53:04;14.50;99.90
51839;DHT22;37886;53.174;6.368;2022-10-17T16:55:30;14.50;99.90
51839;DHT22;37886;53.174;6.368;2022-10-17T16:57:55;14.50;99.90
51839;DHT22;37886;53.174;6.368;2022-10-17T17:00:21;14.50;99.90
51839;DHT22;37886;53.174;6.368;2022-10-17T17:02:47;14.50;99.90
51839;DHT22;37886;53.174;6.368;2022-10-17T17:05:13;14.40;99.90
51839;DHT22;37886;53.174;6.368;2022-10-17T17:07:39;14.40;99.90
51839;DHT22;37886;53.174;6.368;2022-10-17T17:10:05;14.40;99.90
51839;DHT22;37886;53.174;6.368;2022-10-17T17:12:32;14.40;99.90
51839;DHT22;37886;53.174;6.368;2022-10-17T17:14:58;14.30;99.90
51839;DHT22;37886;53.174;6.368;2022-10-17T17:17:24;14.40;99.90
51839;DHT22;37886;53.174;6.368;2022-10-17T17:19:49;14.30;99.90
51839;DHT22;37886;53.174;6.368;2022-10-17T17:22:15;14.30;99.90
51839;DHT22;37886;53.174;6.368;2022-10-17T17:24:41;14.30;99.90
51839;DHT22;37886;53.174;6.368;2022-10-17T17:27:06;14.30;99.90
51839;DHT22;37886;53.174;6.368;2022-10-17T17:29:32;14.20;99.90
51839;DHT22;37886;53.174;6.368;2022-10-17T17:31:58;14.20;99.90
51839;DHT22;37886;53.174;6.368;2022-10-17T17:34:23;14.20;99.90
51839;DHT22;37886;53.174;6.368;2022-10-17T17:36:49;14.10;99.90
51839;DHT22;37886;53.174;6.368;2022-10-17T17:39:15;14.20;99.90
51839;DHT22;37886;53.174;6.368;2022-10-17T17:41:41;14.20;99.90